sensor_id;sensor_type;location;lat;lon;timestamp;P1;durP1;ratioP1;P2;durP2;ratioP2
35592;SDS011;64447;52.140;5.602;2023-11-18T00:01:08;49.72;;;27.83;;
35592;SDS011;64447;52.140;5.602;2023-11-18T00:03:34;49.75;;;28.30;;
35592;SDS011;64447;52.140;5.602;2023-11-18T00:05:59;46.63;;;27.50;;
35592;SDS011;64447;52.140;5.602;2023-11-18T00:08:25;51.22;;;28.35;;
35592;SDS011;64447;52.140;5.602;2023-11-18T00:10:51;51.88;;;31.08;;
35592;SDS011;64447;52.140;5.602;2023-11-18T00:13:16;51.10;;;29.13;;
35592;SDS011;64447;52.140;5.602;2023-11-18T00:15:42;46.13;;;28.00;;
35592;SDS011;64447;52.140;5.602;2023-11-18T00:18:10;43.15;;;27.38;;
35592;SDS011;64447;52.140;5.602;2023-11-18T00:20:36;48.70;;;28.65;;
35592;SDS011;64447;52.140;5.602;2023-11-18T00:23:02;49.78;;;29.52;;
35592;SDS011;64447;52.140;5.602;2023-11-18T00:25:29;49.38;;;28.73;;
35592;SDS011;64447;52.140;5.602;2023-11-18T00:27:55;47.58;;;28.75;;
35592;SDS011;64447;52.140;5.602;2023-11-18T00:30:21;46.78;;;29.30;;
35592;SDS011;64447;52.140;5.602;2023-11-18T00:32:47;46.88;;;29.88;;
35592;SDS011;64447;52.140;5.602;2023-11-18T00:35:13;47.00;;;27.75;;
35592;SDS011;64447;52.140;5.602;2023-11-18T00:37:39;47.35;;;28.00;;
35592;SDS011;64447;52.140;5.602;2023-11-18T00:40:06;45.28;;;27.20;;
35592;SDS011;64447;52.140;5.602;2023-11-18T00:42:34;48.25;;;28.15;;
35592;SDS011;64447;52.140;5.602;2023-11-18T00:45:00;49.78;;;29.58;;
35592;SDS011;64447;52.140;5.602;2023-11-18T00:47:26;45.00;;;28.33;;
35592;SDS011;64447;52.140;5.602;2023-11-18T00:49:51;45.35;;;27.77;;
35592;SDS011;64447;52.140;5.602;2023-11-18T00:52:18;51.75;;;29.40;;
35592;SDS011;64447;52.140;5.602;2023-11-18T00:54:44;47.33;;;27.50;;
35592;SDS011;64447;52.140;5.602;2023-11-18T00:57:10;48.10;;;27.73;;
35592;SDS011;64447;52.140;5.602;2023-11-18T00:59:36;47.08;;;28.25;;
35592;SDS011;64447;52.140;5.602;2023-11-18T01:02:02;42.83;;;27.80;;
35592;SDS011;64447;52.140;5.602;2023-11-18T01:04:28;45.42;;;27.38;;
35592;SDS011;64447;52.140;5.602;2023-11-18T01:06:54;45.72;;;28.27;;
35592;SDS011;64447;52.140;5.602;2023-11-18T01:09:19;46.35;;;26.88;;
35592;SDS011;64447;52.140;5.602;2023-11-18T01:11:45;50.53;;;28.60;;
35592;SDS011;64447;52.140;5.602;2023-11-18T01:14:10;49.45;;;27.98;;
35592;SDS011;64447;52.140;5.602;2023-11-18T01:16:36;48.33;;;26.42;;
35592;SDS011;64447;52.140;5.602;2023-11-18T01:19:02;44.53;;;28.50;;
35592;SDS011;64447;52.140;5.602;2023-11-18T01:21:28;45.78;;;27.15;;
35592;SDS011;64447;52.140;5.602;2023-11-18T01:23:54;46.75;;;28.50;;
35592;SDS011;64447;52.140;5.602;2023-11-18T01:26:20;44.75;;;27.42;;
35592;SDS011;64447;52.140;5.602;2023-11-18T01:28:46;44.45;;;27.15;;
35592;SDS011;64447;52.140;5.602;2023-11-18T01:31:12;44.05;;;27.88;;
35592;SDS011;64447;52.140;5.602;2023-11-18T01:33:38;46.33;;;28.95;;
35592;SDS011;64447;52.140;5.602;2023-11-18T01:36:06;48.00;;;28.20;;
35592;SDS011;64447;52.140;5.602;2023-11-18T01:38:33;49.20;;;29.73;;
35592;SDS011;64447;52.140;5.602;2023-11-18T01:40:59;53.80;;;31.02;;
35592;SDS011;64447;52.140;5.602;2023-11-18T01:43:26;52.50;;;30.33;;
35592;SDS011;64447;52.140;5.602;2023-11-18T01:45:51;46.72;;;30.48;;
35592;SDS011;64447;52.140;5.602;2023-11-18T01:48:18;49.30;;;28.88;;
35592;SDS011;64447;52.140;5.602;2023-11-18T01:50:47;48.67;;;28.80;;
35592;SDS011;64447;52.140;5.602;2023-11-18T01:53:13;51.60;;;29.83;;
35592;SDS011;64447;52.140;5.602;2023-11-18T01:55:39;49.53;;;30.08;;
35592;SDS011;64447;52.140;5.602;2023-11-18T01:58:06;48.92;;;30.15;;
35592;SDS011;64447;52.140;5.602;2023-11-18T02:00:42;49.83;;;29.02;;
35592;SDS011;64447;52.140;5.602;2023-11-18T02:03:07;49.30;;;28.65;;
35592;SDS011;64447;52.140;5.602;2023-11-18T02:05:34;50.97;;;30.50;;
35592;SDS011;64447;52.140;5.602;2023-11-18T02:08:02;45.42;;;27.70;;
35592;SDS011;64447;52.140;5.602;2023-11-18T02:10:33;45.42;;;27.70;;
35592;SDS011;64447;52.140;5.602;2023-11-18T02:15:55;46.95;;;28.52;;
35592;SDS011;64447;52.140;5.602;2023-11-18T02:18:22;50.60;;;28.80;;
35592;SDS011;64447;52.140;5.602;2023-11-18T02:20:56;50.65;;;31.25;;
35592;SDS011;64447;52.140;5.602;2023-11-18T02:23:23;47.47;;;30.52;;
35592;SDS011;64447;52.140;5.602;2023-11-18T02:25:51;51.40;;;29.17;;
35592;SDS011;64447;52.140;5.602;2023-11-18T02:28:17;49.63;;;29.60;;
35592;SDS011;64447;52.140;5.602;2023-11-18T02:30:44;48.28;;;28.48;;
35592;SDS011;64447;52.140;5.602;2023-11-18T02:38:16;51.28;;;31.60;;
35592;SDS011;64447;52.140;5.602;2023-11-18T02:40:48;54.80;;;31.08;;
35592;SDS011;64447;52.140;5.602;2023-11-18T02:43:18;56.15;;;32.88;;
35592;SDS011;64447;52.140;5.602;2023-11-18T02:45:44;49.20;;;30.40;;
35592;SDS011;64447;52.140;5.602;2023-11-18T02:48:11;46.03;;;29.50;;
35592;SDS011;64447;52.140;5.602;2023-11-18T02:50:39;49.03;;;30.33;;
35592;SDS011;64447;52.140;5.602;2023-11-18T02:53:06;50.97;;;30.23;;
35592;SDS011;64447;52.140;5.602;2023-11-18T02:55:34;47.95;;;29.58;;
35592;SDS011;64447;52.140;5.602;2023-11-18T02:58:00;50.92;;;30.70;;
35592;SDS011;64447;52.140;5.602;2023-11-18T03:00:27;48.95;;;29.23;;
35592;SDS011;64447;52.140;5.602;2023-11-18T03:02:53;50.85;;;30.27;;
35592;SDS011;64447;52.140;5.602;2023-11-18T03:05:19;50.78;;;28.95;;
35592;SDS011;64447;52.140;5.602;2023-11-18T03:07:48;51.95;;;30.52;;
35592;SDS011;64447;52.140;5.602;2023-11-18T03:10:18;57.65;;;32.03;;
35592;SDS011;64447;52.140;5.602;2023-11-18T03:12:47;47.65;;;29.05;;
35592;SDS011;64447;52.140;5.602;2023-11-18T03:15:14;49.60;;;29.05;;
35592;SDS011;64447;52.140;5.602;2023-11-18T03:17:42;47.00;;;28.88;;
35592;SDS011;64447;52.140;5.602;2023-11-18T03:20:09;49.08;;;29.02;;
35592;SDS011;64447;52.140;5.602;2023-11-18T03:22:37;46.17;;;28.65;;
35592;SDS011;64447;52.140;5.602;2023-11-18T03:25:02;44.45;;;27.85;;
35592;SDS011;64447;52.140;5.602;2023-11-18T03:27:30;52.35;;;30.63;;
35592;SDS011;64447;52.140;5.602;2023-11-18T03:29:56;50.00;;;28.92;;
35592;SDS011;64447;52.140;5.602;2023-11-18T03:32:21;51.92;;;30.77;;
35592;SDS011;64447;52.140;5.602;2023-11-18T03:34:47;50.03;;;29.42;;
35592;SDS011;64447;52.140;5.602;2023-11-18T03:37:12;51.40;;;29.58;;
35592;SDS011;64447;52.140;5.602;2023-11-18T03:39:38;48.05;;;29.15;;
35592;SDS011;64447;52.140;5.602;2023-11-18T03:42:04;46.05;;;28.42;;
35592;SDS011;64447;52.140;5.602;2023-11-18T03:44:29;51.95;;;29.55;;
35592;SDS011;64447;52.140;5.602;2023-11-18T03:46:55;48.95;;;29.08;;
35592;SDS011;64447;52.140;5.602;2023-11-18T03:49:21;51.13;;;28.48;;
35592;SDS011;64447;52.140;5.602;2023-11-18T03:51:46;51.13;;;28.83;;
35592;SDS011;64447;52.140;5.602;2023-11-18T03:54:12;51.92;;;29.33;;
35592;SDS011;64447;52.140;5.602;2023-11-18T03:56:38;54.03;;;31.50;;
35592;SDS011;64447;52.140;5.602;2023-11-18T03:59:04;51.78;;;30.45;;
35592;SDS011;64447;52.140;5.602;2023-11-18T04:01:30;51.05;;;30.27;;
35592;SDS011;64447;52.140;5.602;2023-11-18T04:03:57;47.40;;;29.50;;
35592;SDS011;64447;52.140;5.602;2023-11-18T04:06:23;56.30;;;31.80;;
35592;SDS011;64447;52.140;5.602;2023-11-18T04:08:49;58.50;;;30.85;;
35592;SDS011;64447;52.140;5.602;2023-11-18T04:11:15;50.72;;;29.63;;
35592;SDS011;64447;52.140;5.602;2023-11-18T04:13:42;57.33;;;30.80;;
35592;SDS011;64447;52.140;5.602;2023-11-18T04:16:11;51.90;;;30.20;;
35592;SDS011;64447;52.140;5.602;2023-11-18T04:18:38;55.03;;;31.25;;
35592;SDS011;64447;52.140;5.602;2023-11-18T04:21:05;50.28;;;30.92;;
35592;SDS011;64447;52.140;5.602;2023-11-18T04:23:31;55.20;;;32.15;;
35592;SDS011;64447;52.140;5.602;2023-11-18T04:25:58;54.55;;;31.80;;
35592;SDS011;64447;52.140;5.602;2023-11-18T04:28:23;58.60;;;31.85;;
35592;SDS011;64447;52.140;5.602;2023-11-18T04:30:49;55.63;;;31.98;;
35592;SDS011;64447;52.140;5.602;2023-11-18T04:33:15;56.60;;;30.58;;
35592;SDS011;64447;52.140;5.602;2023-11-18T04:35:40;54.30;;;32.83;;
35592;SDS011;64447;52.140;5.602;2023-11-18T04:38:06;55.60;;;32.70;;
35592;SDS011;64447;52.140;5.602;2023-11-18T04:40:31;56.20;;;32.03;;
35592;SDS011;64447;52.140;5.602;2023-11-18T04:42:57;55.35;;;32.90;;
35592;SDS011;64447;52.140;5.602;2023-11-18T04:45:23;52.20;;;30.98;;
35592;SDS011;64447;52.140;5.602;2023-11-18T04:47:48;52.22;;;30.90;;
35592;SDS011;64447;52.140;5.602;2023-11-18T04:50:15;56.95;;;32.88;;
35592;SDS011;64447;52.140;5.602;2023-11-18T04:52:41;61.33;;;32.83;;
35592;SDS011;64447;52.140;5.602;2023-11-18T04:55:07;53.00;;;30.27;;
35592;SDS011;64447;52.140;5.602;2023-11-18T04:57:34;60.47;;;32.83;;
35592;SDS011;64447;52.140;5.602;2023-11-18T05:00:00;52.47;;;31.05;;
35592;SDS011;64447;52.140;5.602;2023-11-18T05:02:35;55.15;;;31.58;;
35592;SDS011;64447;52.140;5.602;2023-11-18T05:05:01;57.78;;;31.02;;
35592;SDS011;64447;52.140;5.602;2023-11-18T05:07:26;62.75;;;32.42;;
35592;SDS011;64447;52.140;5.602;2023-11-18T05:09:53;52.47;;;30.50;;
35592;SDS011;64447;52.140;5.602;2023-11-18T05:12:19;56.67;;;32.70;;
35592;SDS011;64447;52.140;5.602;2023-11-18T05:14:45;56.50;;;32.75;;
35592;SDS011;64447;52.140;5.602;2023-11-18T05:17:10;57.75;;;33.83;;
35592;SDS011;64447;52.140;5.602;2023-11-18T05:19:36;52.90;;;31.25;;
35592;SDS011;64447;52.140;5.602;2023-11-18T05:22:01;50.72;;;30.13;;
35592;SDS011;64447;52.140;5.602;2023-11-18T05:24:27;55.80;;;29.88;;
35592;SDS011;64447;52.140;5.602;2023-11-18T05:26:53;49.53;;;30.27;;
35592;SDS011;64447;52.140;5.602;2023-11-18T05:29:18;54.15;;;30.33;;
35592;SDS011;64447;52.140;5.602;2023-11-18T05:31:46;55.55;;;30.27;;
35592;SDS011;64447;52.140;5.602;2023-11-18T05:34:11;55.08;;;31.35;;
35592;SDS011;64447;52.140;5.602;2023-11-18T05:36:37;53.15;;;29.95;;
35592;SDS011;64447;52.140;5.602;2023-11-18T05:39:05;52.05;;;29.08;;
35592;SDS011;64447;52.140;5.602;2023-11-18T05:41:32;50.28;;;29.67;;
35592;SDS011;64447;52.140;5.602;2023-11-18T05:44:00;49.58;;;27.88;;
35592;SDS011;64447;52.140;5.602;2023-11-18T05:46:26;46.78;;;27.58;;
35592;SDS011;64447;52.140;5.602;2023-11-18T05:48:54;50.58;;;28.13;;
35592;SDS011;64447;52.140;5.602;2023-11-18T05:51:24;46.28;;;27.88;;
35592;SDS011;64447;52.140;5.602;2023-11-18T05:53:51;49.25;;;29.25;;
35592;SDS011;64447;52.140;5.602;2023-11-18T05:56:18;50.47;;;28.13;;
35592;SDS011;64447;52.140;5.602;2023-11-18T05:58:44;48.00;;;29.35;;
35592;SDS011;64447;52.140;5.602;2023-11-18T06:01:11;47.50;;;27.42;;
35592;SDS011;64447;52.140;5.602;2023-11-18T06:03:41;47.17;;;28.10;;
35592;SDS011;64447;52.140;5.602;2023-11-18T06:06:12;46.92;;;26.92;;
35592;SDS011;64447;52.140;5.602;2023-11-18T06:08:41;48.13;;;26.48;;
35592;SDS011;64447;52.140;5.602;2023-11-18T06:11:10;51.28;;;27.80;;
35592;SDS011;64447;52.140;5.602;2023-11-18T06:13:50;45.05;;;26.35;;
35592;SDS011;64447;52.140;5.602;2023-11-18T06:16:18;45.50;;;27.02;;
35592;SDS011;64447;52.140;5.602;2023-11-18T06:18:46;48.15;;;26.33;;
35592;SDS011;64447;52.140;5.602;2023-11-18T06:21:16;47.22;;;26.85;;
35592;SDS011;64447;52.140;5.602;2023-11-18T06:23:43;46.78;;;24.88;;
35592;SDS011;64447;52.140;5.602;2023-11-18T06:26:10;46.03;;;24.63;;
35592;SDS011;64447;52.140;5.602;2023-11-18T06:28:43;43.75;;;24.20;;
35592;SDS011;64447;52.140;5.602;2023-11-18T06:31:10;43.45;;;24.58;;
35592;SDS011;64447;52.140;5.602;2023-11-18T06:33:37;44.67;;;25.38;;
35592;SDS011;64447;52.140;5.602;2023-11-18T06:36:03;44.15;;;25.38;;
35592;SDS011;64447;52.140;5.602;2023-11-18T06:38:30;39.28;;;23.02;;
35592;SDS011;64447;52.140;5.602;2023-11-18T06:40:56;39.78;;;22.90;;
35592;SDS011;64447;52.140;5.602;2023-11-18T06:43:23;42.70;;;23.10;;
35592;SDS011;64447;52.140;5.602;2023-11-18T06:45:50;40.65;;;24.00;;
35592;SDS011;64447;52.140;5.602;2023-11-18T06:48:16;39.17;;;23.63;;
35592;SDS011;64447;52.140;5.602;2023-11-18T06:50:45;43.17;;;23.65;;
35592;SDS011;64447;52.140;5.602;2023-11-18T06:53:11;43.90;;;23.90;;
35592;SDS011;64447;52.140;5.602;2023-11-18T06:55:37;39.33;;;23.42;;
35592;SDS011;64447;52.140;5.602;2023-11-18T06:58:02;46.25;;;23.98;;
35592;SDS011;64447;52.140;5.602;2023-11-18T07:00:28;40.17;;;23.95;;
35592;SDS011;64447;52.140;5.602;2023-11-18T07:02:54;40.30;;;22.58;;
35592;SDS011;64447;52.140;5.602;2023-11-18T07:05:20;36.25;;;23.85;;
35592;SDS011;64447;52.140;5.602;2023-11-18T07:07:49;40.78;;;23.15;;
35592;SDS011;64447;52.140;5.602;2023-11-18T07:10:15;38.75;;;22.27;;
35592;SDS011;64447;52.140;5.602;2023-11-18T07:12:45;33.65;;;21.45;;
35592;SDS011;64447;52.140;5.602;2023-11-18T07:15:13;35.00;;;22.00;;
35592;SDS011;64447;52.140;5.602;2023-11-18T07:17:39;41.38;;;22.83;;
35592;SDS011;64447;52.140;5.602;2023-11-18T07:20:05;43.35;;;25.70;;
35592;SDS011;64447;52.140;5.602;2023-11-18T07:22:31;42.85;;;26.08;;
35592;SDS011;64447;52.140;5.602;2023-11-18T07:24:57;41.90;;;25.58;;
35592;SDS011;64447;52.140;5.602;2023-11-18T07:27:23;40.00;;;26.02;;
35592;SDS011;64447;52.140;5.602;2023-11-18T07:29:48;36.53;;;23.33;;
35592;SDS011;64447;52.140;5.602;2023-11-18T07:32:14;42.22;;;25.15;;
35592;SDS011;64447;52.140;5.602;2023-11-18T07:34:39;42.00;;;24.23;;
35592;SDS011;64447;52.140;5.602;2023-11-18T07:37:06;40.28;;;24.63;;
35592;SDS011;64447;52.140;5.602;2023-11-18T07:39:33;42.10;;;25.27;;
35592;SDS011;64447;52.140;5.602;2023-11-18T07:42:13;33.25;;;23.45;;
35592;SDS011;64447;52.140;5.602;2023-11-18T07:44:40;35.15;;;22.77;;
35592;SDS011;64447;52.140;5.602;2023-11-18T07:47:06;39.17;;;25.05;;
35592;SDS011;64447;52.140;5.602;2023-11-18T07:49:34;35.67;;;23.23;;
35592;SDS011;64447;52.140;5.602;2023-11-18T07:52:03;39.00;;;23.58;;
35592;SDS011;64447;52.140;5.602;2023-11-18T07:54:29;33.58;;;21.80;;
35592;SDS011;64447;52.140;5.602;2023-11-18T07:56:55;37.55;;;23.20;;
35592;SDS011;64447;52.140;5.602;2023-11-18T07:59:20;36.22;;;22.80;;
35592;SDS011;64447;52.140;5.602;2023-11-18T08:01:47;35.92;;;22.02;;
35592;SDS011;64447;52.140;5.602;2023-11-18T08:04:13;34.83;;;22.23;;
35592;SDS011;64447;52.140;5.602;2023-11-18T08:06:39;39.53;;;25.05;;
35592;SDS011;64447;52.140;5.602;2023-11-18T08:09:05;46.58;;;31.65;;
35592;SDS011;64447;52.140;5.602;2023-11-18T08:11:39;45.03;;;32.03;;
35592;SDS011;64447;52.140;5.602;2023-11-18T08:14:09;44.20;;;31.77;;
35592;SDS011;64447;52.140;5.602;2023-11-18T08:16:34;43.08;;;30.17;;
35592;SDS011;64447;52.140;5.602;2023-11-18T08:19:01;38.85;;;26.92;;
35592;SDS011;64447;52.140;5.602;2023-11-18T08:21:33;39.42;;;25.73;;
35592;SDS011;64447;52.140;5.602;2023-11-18T08:23:59;32.63;;;22.83;;
35592;SDS011;64447;52.140;5.602;2023-11-18T08:26:25;34.30;;;21.55;;
35592;SDS011;64447;52.140;5.602;2023-11-18T08:28:51;33.83;;;20.98;;
35592;SDS011;64447;52.140;5.602;2023-11-18T08:31:17;35.10;;;20.98;;
35592;SDS011;64447;52.140;5.602;2023-11-18T08:33:42;31.77;;;20.17;;
35592;SDS011;64447;52.140;5.602;2023-11-18T08:36:08;31.08;;;21.08;;
35592;SDS011;64447;52.140;5.602;2023-11-18T08:38:34;34.40;;;20.75;;
35592;SDS011;64447;52.140;5.602;2023-11-18T08:41:00;31.85;;;20.58;;
35592;SDS011;64447;52.140;5.602;2023-11-18T08:43:26;31.95;;;19.77;;
35592;SDS011;64447;52.140;5.602;2023-11-18T08:45:54;30.90;;;18.75;;
35592;SDS011;64447;52.140;5.602;2023-11-18T08:48:21;30.13;;;19.02;;
35592;SDS011;64447;52.140;5.602;2023-11-18T08:50:48;31.58;;;19.05;;
35592;SDS011;64447;52.140;5.602;2023-11-18T08:53:14;35.70;;;19.60;;
35592;SDS011;64447;52.140;5.602;2023-11-18T08:55:43;30.48;;;19.42;;
35592;SDS011;64447;52.140;5.602;2023-11-18T08:58:19;25.80;;;17.65;;
35592;SDS011;64447;52.140;5.602;2023-11-18T09:00:47;31.17;;;18.10;;
35592;SDS011;64447;52.140;5.602;2023-11-18T09:03:17;30.88;;;18.83;;
35592;SDS011;64447;52.140;5.602;2023-11-18T09:05:56;33.40;;;18.27;;
35592;SDS011;64447;52.140;5.602;2023-11-18T09:10:49;24.83;;;16.65;;
35592;SDS011;64447;52.140;5.602;2023-11-18T09:13:18;24.73;;;16.67;;
35592;SDS011;64447;52.140;5.602;2023-11-18T09:15:45;25.65;;;14.70;;
35592;SDS011;64447;52.140;5.602;2023-11-18T09:18:12;25.83;;;15.52;;
35592;SDS011;64447;52.140;5.602;2023-11-18T09:20:38;24.77;;;16.00;;
35592;SDS011;64447;52.140;5.602;2023-11-18T09:23:04;22.77;;;15.23;;
35592;SDS011;64447;52.140;5.602;2023-11-18T09:25:31;20.02;;;12.95;;
35592;SDS011;64447;52.140;5.602;2023-11-18T09:27:57;20.73;;;13.52;;
35592;SDS011;64447;52.140;5.602;2023-11-18T09:30:23;18.73;;;13.23;;
35592;SDS011;64447;52.140;5.602;2023-11-18T09:32:49;22.13;;;14.52;;
35592;SDS011;64447;52.140;5.602;2023-11-18T09:35:16;23.35;;;14.55;;
35592;SDS011;64447;52.140;5.602;2023-11-18T09:37:44;23.63;;;14.20;;
35592;SDS011;64447;52.140;5.602;2023-11-18T09:40:13;20.75;;;13.52;;
35592;SDS011;64447;52.140;5.602;2023-11-18T09:42:39;21.02;;;12.57;;
35592;SDS011;64447;52.140;5.602;2023-11-18T09:45:08;23.02;;;13.00;;
35592;SDS011;64447;52.140;5.602;2023-11-18T09:47:43;19.80;;;13.00;;
35592;SDS011;64447;52.140;5.602;2023-11-18T09:50:12;23.52;;;12.70;;
35592;SDS011;64447;52.140;5.602;2023-11-18T09:52:42;19.15;;;12.95;;
35592;SDS011;64447;52.140;5.602;2023-11-18T09:55:21;18.63;;;12.20;;
35592;SDS011;64447;52.140;5.602;2023-11-18T09:57:59;19.67;;;13.05;;
35592;SDS011;64447;52.140;5.602;2023-11-18T10:00:34;24.95;;;13.05;;
35592;SDS011;64447;52.140;5.602;2023-11-18T10:03:04;21.25;;;12.63;;
35592;SDS011;64447;52.140;5.602;2023-11-18T10:05:33;18.55;;;11.50;;
35592;SDS011;64447;52.140;5.602;2023-11-18T10:08:02;19.77;;;11.70;;
35592;SDS011;64447;52.140;5.602;2023-11-18T10:10:30;20.48;;;12.02;;
35592;SDS011;64447;52.140;5.602;2023-11-18T10:13:01;19.60;;;11.93;;
35592;SDS011;64447;52.140;5.602;2023-11-18T10:15:29;24.48;;;12.73;;
35592;SDS011;64447;52.140;5.602;2023-11-18T10:17:56;18.45;;;12.00;;
35592;SDS011;64447;52.140;5.602;2023-11-18T10:20:58;16.08;;;11.45;;
35592;SDS011;64447;52.140;5.602;2023-11-18T10:23:17;20.17;;;12.63;;
35592;SDS011;64447;52.140;5.602;2023-11-18T10:25:54;19.98;;;11.52;;
35592;SDS011;64447;52.140;5.602;2023-11-18T10:28:29;24.15;;;12.48;;
35592;SDS011;64447;52.140;5.602;2023-11-18T10:31:00;16.42;;;11.93;;
35592;SDS011;64447;52.140;5.602;2023-11-18T10:33:37;20.95;;;11.60;;
35592;SDS011;64447;52.140;5.602;2023-11-18T10:36:06;22.88;;;11.98;;
35592;SDS011;64447;52.140;5.602;2023-11-18T10:38:47;19.73;;;11.88;;
35592;SDS011;64447;52.140;5.602;2023-11-18T10:41:14;18.55;;;10.80;;
35592;SDS011;64447;52.140;5.602;2023-11-18T10:43:42;22.33;;;13.30;;
35592;SDS011;64447;52.140;5.602;2023-11-18T10:46:10;16.27;;;11.13;;
35592;SDS011;64447;52.140;5.602;2023-11-18T10:48:40;19.08;;;11.70;;
35592;SDS011;64447;52.140;5.602;2023-11-18T10:51:10;16.70;;;10.80;;
35592;SDS011;64447;52.140;5.602;2023-11-18T10:53:41;20.55;;;11.00;;
35592;SDS011;64447;52.140;5.602;2023-11-18T10:56:18;21.52;;;11.50;;
35592;SDS011;64447;52.140;5.602;2023-11-18T10:59:13;16.67;;;11.77;;
35592;SDS011;64447;52.140;5.602;2023-11-18T11:01:44;17.42;;;11.85;;
35592;SDS011;64447;52.140;5.602;2023-11-18T11:04:13;19.40;;;11.38;;
35592;SDS011;64447;52.140;5.602;2023-11-18T11:06:43;19.92;;;12.02;;
35592;SDS011;64447;52.140;5.602;2023-11-18T11:09:17;20.63;;;11.45;;
35592;SDS011;64447;52.140;5.602;2023-11-18T11:11:51;20.23;;;12.43;;
35592;SDS011;64447;52.140;5.602;2023-11-18T11:14:21;19.40;;;11.13;;
35592;SDS011;64447;52.140;5.602;2023-11-18T11:16:52;19.38;;;11.77;;
35592;SDS011;64447;52.140;5.602;2023-11-18T11:19:28;20.30;;;11.98;;
35592;SDS011;64447;52.140;5.602;2023-11-18T11:22:09;19.38;;;12.23;;
35592;SDS011;64447;52.140;5.602;2023-11-18T11:27:33;20.08;;;12.35;;
35592;SDS011;64447;52.140;5.602;2023-11-18T11:30:16;22.05;;;12.27;;
35592;SDS011;64447;52.140;5.602;2023-11-18T11:32:53;23.23;;;12.07;;
35592;SDS011;64447;52.140;5.602;2023-11-18T11:35:37;19.38;;;11.93;;
35592;SDS011;64447;52.140;5.602;2023-11-18T11:38:09;19.10;;;10.90;;
35592;SDS011;64447;52.140;5.602;2023-11-18T11:40:42;20.70;;;11.45;;
35592;SDS011;64447;52.140;5.602;2023-11-18T11:43:09;15.52;;;9.73;;
35592;SDS011;64447;52.140;5.602;2023-11-18T11:45:40;18.15;;;11.48;;
35592;SDS011;64447;52.140;5.602;2023-11-18T11:48:08;19.38;;;11.43;;
35592;SDS011;64447;52.140;5.602;2023-11-18T11:53:30;17.85;;;10.65;;
35592;SDS011;64447;52.140;5.602;2023-11-18T11:56:04;13.63;;;10.13;;
35592;SDS011;64447;52.140;5.602;2023-11-18T11:58:33;15.88;;;10.27;;
35592;SDS011;64447;52.140;5.602;2023-11-18T12:01:02;20.92;;;10.85;;
35592;SDS011;64447;52.140;5.602;2023-11-18T12:03:57;15.55;;;9.70;;
35592;SDS011;64447;52.140;5.602;2023-11-18T12:06:26;18.98;;;10.75;;
35592;SDS011;64447;52.140;5.602;2023-11-18T12:08:53;15.55;;;10.35;;
35592;SDS011;64447;52.140;5.602;2023-11-18T12:11:20;17.70;;;9.48;;
35592;SDS011;64447;52.140;5.602;2023-11-18T12:14:03;15.07;;;9.82;;
35592;SDS011;64447;52.140;5.602;2023-11-18T12:19:32;15.50;;;9.68;;
35592;SDS011;64447;52.140;5.602;2023-11-18T12:22:10;13.43;;;9.02;;
35592;SDS011;64447;52.140;5.602;2023-11-18T12:24:43;14.60;;;8.52;;
35592;SDS011;64447;52.140;5.602;2023-11-18T12:27:40;13.05;;;8.68;;
35592;SDS011;64447;52.140;5.602;2023-11-18T12:35:29;15.23;;;9.10;;
35592;SDS011;64447;52.140;5.602;2023-11-18T12:49:02;13.85;;;8.07;;
35592;SDS011;64447;52.140;5.602;2023-11-18T12:51:28;13.05;;;8.18;;
35592;SDS011;64447;52.140;5.602;2023-11-18T12:53:56;14.55;;;7.72;;
35592;SDS011;64447;52.140;5.602;2023-11-18T12:56:23;11.35;;;8.07;;
35592;SDS011;64447;52.140;5.602;2023-11-18T12:58:50;11.27;;;7.13;;
35592;SDS011;64447;52.140;5.602;2023-11-18T13:01:16;12.48;;;7.43;;
35592;SDS011;64447;52.140;5.602;2023-11-18T13:03:44;12.50;;;7.35;;
35592;SDS011;64447;52.140;5.602;2023-11-18T13:06:10;12.60;;;7.53;;
35592;SDS011;64447;52.140;5.602;2023-11-18T13:08:42;12.85;;;8.25;;
35592;SDS011;64447;52.140;5.602;2023-11-18T13:11:08;16.08;;;8.40;;
35592;SDS011;64447;52.140;5.602;2023-11-18T13:13:43;9.20;;;6.97;;
35592;SDS011;64447;52.140;5.602;2023-11-18T13:16:08;13.63;;;7.90;;
35592;SDS011;64447;52.140;5.602;2023-11-18T13:18:41;10.23;;;7.53;;
35592;SDS011;64447;52.140;5.602;2023-11-18T13:21:14;11.38;;;6.80;;
35592;SDS011;64447;52.140;5.602;2023-11-18T13:23:51;11.02;;;7.20;;
35592;SDS011;64447;52.140;5.602;2023-11-18T13:26:18;8.23;;;6.07;;
35592;SDS011;64447;52.140;5.602;2023-11-18T13:28:48;8.88;;;6.25;;
35592;SDS011;64447;52.140;5.602;2023-11-18T13:31:17;9.48;;;5.53;;
35592;SDS011;64447;52.140;5.602;2023-11-18T13:33:43;8.55;;;5.70;;
35592;SDS011;64447;52.140;5.602;2023-11-18T13:36:09;7.93;;;6.40;;
35592;SDS011;64447;52.140;5.602;2023-11-18T13:38:36;9.68;;;6.47;;
35592;SDS011;64447;52.140;5.602;2023-11-18T13:41:02;8.57;;;5.90;;
35592;SDS011;64447;52.140;5.602;2023-11-18T13:43:49;9.00;;;5.85;;
35592;SDS011;64447;52.140;5.602;2023-11-18T13:46:17;9.30;;;6.50;;
35592;SDS011;64447;52.140;5.602;2023-11-18T13:48:47;6.38;;;5.22;;
35592;SDS011;64447;52.140;5.602;2023-11-18T13:51:14;7.07;;;5.90;;
35592;SDS011;64447;52.140;5.602;2023-11-18T13:53:41;10.82;;;6.03;;
35592;SDS011;64447;52.140;5.602;2023-11-18T13:56:12;7.13;;;5.50;;
35592;SDS011;64447;52.140;5.602;2023-11-18T13:58:42;6.75;;;5.22;;
35592;SDS011;64447;52.140;5.602;2023-11-18T14:01:10;6.85;;;5.05;;
35592;SDS011;64447;52.140;5.602;2023-11-18T14:03:37;7.13;;;5.30;;
35592;SDS011;64447;52.140;5.602;2023-11-18T14:06:07;9.05;;;5.72;;
35592;SDS011;64447;52.140;5.602;2023-11-18T14:08:35;8.30;;;5.28;;
35592;SDS011;64447;52.140;5.602;2023-11-18T14:11:01;7.78;;;5.38;;
35592;SDS011;64447;52.140;5.602;2023-11-18T14:13:30;9.18;;;5.68;;
35592;SDS011;64447;52.140;5.602;2023-11-18T14:15:59;8.30;;;5.65;;
35592;SDS011;64447;52.140;5.602;2023-11-18T14:18:25;6.68;;;5.10;;
35592;SDS011;64447;52.140;5.602;2023-11-18T14:20:52;6.10;;;5.28;;
35592;SDS011;64447;52.140;5.602;2023-11-18T14:23:18;5.68;;;4.10;;
35592;SDS011;64447;52.140;5.602;2023-11-18T14:25:44;5.35;;;3.95;;
35592;SDS011;64447;52.140;5.602;2023-11-18T14:28:13;4.53;;;4.10;;
35592;SDS011;64447;52.140;5.602;2023-11-18T14:30:38;6.97;;;4.80;;
35592;SDS011;64447;52.140;5.602;2023-11-18T14:33:05;5.18;;;3.90;;
35592;SDS011;64447;52.140;5.602;2023-11-18T14:35:32;5.07;;;3.83;;
35592;SDS011;64447;52.140;5.602;2023-11-18T14:37:58;3.95;;;3.55;;
35592;SDS011;64447;52.140;5.602;2023-11-18T14:40:27;4.78;;;4.05;;
35592;SDS011;64447;52.140;5.602;2023-11-18T14:42:53;6.00;;;4.80;;
35592;SDS011;64447;52.140;5.602;2023-11-18T14:45:20;3.45;;;3.15;;
35592;SDS011;64447;52.140;5.602;2023-11-18T14:47:46;4.15;;;3.45;;
35592;SDS011;64447;52.140;5.602;2023-11-18T14:50:19;3.22;;;2.92;;
35592;SDS011;64447;52.140;5.602;2023-11-18T14:52:49;5.00;;;2.90;;
35592;SDS011;64447;52.140;5.602;2023-11-18T14:55:27;3.63;;;3.33;;
35592;SDS011;64447;52.140;5.602;2023-11-18T14:57:54;4.80;;;3.70;;
35592;SDS011;64447;52.140;5.602;2023-11-18T15:00:22;4.20;;;3.80;;
35592;SDS011;64447;52.140;5.602;2023-11-18T15:02:52;4.53;;;3.28;;
35592;SDS011;64447;52.140;5.602;2023-11-18T15:05:22;3.53;;;3.22;;
35592;SDS011;64447;52.140;5.602;2023-11-18T15:07:49;5.28;;;2.75;;